Terminal Aerodrome Forecast
Issued by NWS Wilmington, OH

Home | Current Version | Previous Version | Text Only | Print | Product List | Glossary On
Versions: 1 2 3 4 5 6 7 8 9 10 11 12 13 14 15 16 17 18 19
000
FTUS41 KILN 240521
TAFDAY
TAF
KDAY 240521Z 2406/2506 33010KT 5SM -DZ BR OVC004
     FM241200 31010KT P6SM OVC007
     FM241700 29010KT P6SM OVC012
     FM242100 26006KT P6SM OVC022
     FM250100 22004KT P6SM SCT025 BKN120=

USA.gov is the U.S. government's official web portal to all federal, state and local government web resources and services.